createdAt,value
2018-06-18T00:01:37.704Z,19.50
2018-06-18T00:06:31.915Z,19.40
2018-06-18T00:08:58.961Z,19.30
2018-06-18T00:11:26.025Z,19.30
2018-06-18T00:13:53.258Z,19.20
2018-06-18T00:16:20.376Z,19.20
2018-06-18T00:18:47.467Z,19.00
2018-06-18T00:21:14.516Z,18.80
2018-06-18T00:23:41.592Z,18.70
2018-06-18T00:26:08.778Z,18.50
2018-06-18T00:28:35.798Z,18.50
2018-06-18T00:33:30.004Z,18.40
2018-06-18T00:35:57.086Z,18.30
2018-06-18T00:38:24.171Z,18.20
2018-06-18T00:40:51.313Z,18.30
2018-06-18T00:43:18.462Z,18.20
2018-06-18T00:45:45.508Z,18.20
2018-06-18T00:48:12.562Z,18.10
2018-06-18T00:50:39.690Z,18.20
2018-06-18T00:53:06.815Z,18.50
2018-06-18T00:55:45.646Z,18.30
2018-06-18T00:58:12.713Z,18.20
2018-06-18T01:00:39.858Z,18.40
2018-06-18T01:03:06.903Z,18.40
2018-06-18T01:05:33.958Z,18.30
2018-06-18T01:08:00.995Z,18.10
2018-06-18T01:10:28.029Z,18.10
2018-06-18T01:12:55.050Z,18.00
2018-06-18T01:15:22.188Z,18.00
2018-06-18T01:17:49.309Z,17.70
2018-06-18T01:20:16.322Z,17.60
2018-06-18T01:22:47.176Z,17.50
2018-06-18T01:25:14.243Z,17.40
2018-06-18T01:27:41.275Z,17.60
2018-06-18T01:30:08.431Z,17.60
2018-06-18T01:32:35.495Z,17.40
2018-06-18T01:35:02.590Z,17.30
2018-06-18T01:37:29.619Z,17.10
2018-06-18T01:39:56.695Z,17.00
2018-06-18T01:42:23.800Z,16.90
2018-06-18T01:44:50.956Z,16.80
2018-06-18T01:47:18.092Z,16.80
2018-06-18T01:49:45.148Z,16.90
2018-06-18T01:52:12.208Z,16.60
2018-06-18T01:54:39.314Z,16.70
2018-06-18T01:57:06.395Z,16.80
2018-06-18T01:59:33.428Z,16.90
2018-06-18T02:02:00.504Z,16.80
2018-06-18T02:04:27.793Z,16.80
2018-06-18T02:06:54.875Z,16.80
2018-06-18T02:09:21.972Z,16.80
2018-06-18T02:11:49.153Z,16.70
2018-06-18T02:14:16.184Z,16.60
2018-06-18T02:16:43.220Z,16.60
2018-06-18T02:19:10.296Z,16.50
2018-06-18T02:21:37.933Z,16.70
2018-06-18T02:24:05.041Z,16.70
2018-06-18T02:26:32.076Z,16.60
2018-06-18T02:29:05.542Z,16.40
2018-06-18T02:31:38.545Z,16.40
2018-06-18T02:34:11.384Z,16.40
2018-06-18T02:36:44.300Z,16.20
2018-06-18T02:39:12.976Z,16.20
2018-06-18T02:41:40.296Z,16.10
2018-06-18T02:44:07.627Z,15.90
2018-06-18T02:46:34.687Z,16.10
2018-06-18T02:49:01.764Z,15.90
2018-06-18T02:51:28.829Z,15.90
2018-06-18T02:53:55.868Z,16.00
2018-06-18T02:56:28.539Z,16.30
2018-06-18T02:58:55.632Z,16.20
2018-06-18T03:01:22.729Z,16.10
2018-06-18T03:03:49.875Z,16.10
2018-06-18T03:06:16.904Z,16.10
2018-06-18T03:08:43.948Z,16.00
2018-06-18T03:11:10.999Z,16.00
2018-06-18T03:13:38.145Z,16.00
2018-06-18T03:16:05.187Z,15.80
2018-06-18T03:18:38.163Z,15.90
2018-06-18T03:21:11.172Z,15.90
2018-06-18T03:23:43.927Z,16.10
2018-06-18T03:28:49.760Z,16.10
2018-06-18T03:31:16.842Z,16.20
2018-06-18T03:33:43.895Z,16.20
2018-06-18T03:36:10.977Z,16.10
2018-06-18T03:38:38.086Z,16.00
2018-06-18T03:41:05.523Z,16.10
2018-06-18T03:43:34.778Z,16.20
2018-06-18T03:46:01.825Z,16.30
2018-06-18T03:50:56.122Z,16.60
2018-06-18T03:53:23.307Z,16.70
2018-06-18T03:55:53.561Z,16.70
2018-06-18T03:58:20.738Z,16.60
2018-06-18T04:01:05.502Z,16.70
2018-06-18T04:03:38.545Z,16.70
2018-06-18T04:06:11.492Z,16.80
2018-06-18T04:08:38.627Z,16.90
2018-06-18T04:11:11.419Z,16.90
2018-06-18T04:13:38.460Z,16.70
2018-06-18T04:16:05.515Z,16.80
2018-06-18T04:18:37.219Z,16.70
2018-06-18T04:21:04.280Z,16.80
2018-06-18T04:23:31.305Z,16.70
2018-06-18T04:25:58.352Z,16.60
2018-06-18T04:28:25.464Z,16.60
2018-06-18T04:30:52.691Z,16.80
2018-06-18T04:33:22.541Z,16.80
2018-06-18T04:35:49.858Z,16.90
2018-06-18T04:38:16.905Z,16.80
2018-06-18T04:40:43.967Z,16.90
2018-06-18T04:44:16.723Z,17.00
2018-06-18T10:55:33.748Z,21.60
2018-06-18T10:58:00.776Z,21.60
2018-06-18T11:00:28.147Z,21.60
2018-06-18T11:02:55.425Z,21.50
2018-06-18T11:05:28.308Z,21.80
2018-06-18T11:07:55.362Z,21.40
2018-06-18T11:10:22.440Z,21.40
2018-06-18T11:12:49.488Z,21.50
2018-06-18T11:15:16.584Z,21.60
2018-06-18T11:17:49.518Z,21.90
2018-06-18T11:20:22.504Z,22.10
2018-06-18T11:22:55.390Z,22.20
2018-06-18T11:27:55.272Z,21.40
2018-06-18T11:30:22.364Z,21.70
2018-06-18T11:32:49.490Z,21.50
